< < Back
Terminal Aerodrome Forecast


Current Version              Previous Versions:   1  2  3  4  5  6  7  8  9  

Terminal Aerodrome Forecast

694
FTUS44 KOHX 222000 AAA
TAFBNA
TAF AMD
KBNA 222021Z 2220/2318 15012KT P6SM -SHRA OVC015
     FM230000 17014KT P6SM VCSH OVC010
     FM230400 17012KT 5SM BR OVC008
     FM230800 18007KT 4SM BR OVC006
      TEMPO 2309/2313 -SHRA
     FM231300 27003KT 4SM -SHRA BR OVC012=

Latest METAR

982
SAUS70 KWBC 230100 RRR
MTRBNA
METAR KBNA 230053Z 15010KT 10SM OVC011 11/09 A2973 RMK AO2 SLP066
T01110089


USA.gov is the U.S. government's official web portal to all federal, state and local government web resources and services.